Selah, Washington
Current Conditions -  °F | °C
As of 3:56 PM on Tuesday 21 Oct 2014 (Local Time) from K1YT Reporting Station
Few Clouds Few Clouds  
Wind Chill: 63°   Ceiling: Unl
Heat Index: 63°   Visibility: 10mi
Dew Point: 42°   Wind: 15mph
Humidity: 47%   Direction: 210°SSW
Pressure: 29.92"   Gusts: 24mph
Location:  46.65°N, 120.53°W
Report Text: K1YT 212256Z AUTO 21013G21KT 10SM FEW070 17/06 A2992 RMK AO2 LTG DSNT NW SLPNO T01700055
Loading
Personal Weather Stations






























Interactive Weather Map New forecast layout! Learn more

10-Day Weather Forecast

Advertisements
Track Severe Weather on mobile